AAL4967 KFAT-KPHX
Flight info
| Callsign | AAL4967 |
|---|---|
| Flight time | N/A |
| Altitude | 33000 |
| Route | BULL3 NTELL FRAME EHF AMONT PMD J65 BLH HYDRR1 |
| Aircraft | E75L/M-SDE3GILORVW/S |
Departure
| Time | 2026-04-16 22:13 |
|---|---|
| Airport | Fresno Yosemite International Airport (KFAT) |
Arrival
| Time | N/A |
|---|---|
| Airport | Phoenix Sky Harbor International Airport (KPHX) |
| Time | Latitude | Longitude | Altitude | Speed | Heading |
|---|---|---|---|---|---|
| 2026-04-16 21:52 | 36.77224 | -119.71833 | 337 ft | 0 kts | 215° |
| 2026-04-16 22:07 | 36.77227 | -119.71830 | 335 ft | 3 kts | 214° |
| 2026-04-16 22:07 | 36.77244 | -119.71816 | 335 ft | 3 kts | 210° |
| 2026-04-16 22:07 | 36.77263 | -119.71804 | 339 ft | 3 kts | 204° |
| 2026-04-16 22:07 | 36.77279 | -119.71795 | 336 ft | 1 kts | 203° |
| 2026-04-16 22:08 | 36.77282 | -119.71793 | 335 ft | 0 kts | 203° |
| 2026-04-16 22:10 | 36.77279 | -119.71793 | 336 ft | 2 kts | 188° |
| 2026-04-16 22:10 | 36.77254 | -119.71763 | 338 ft | 10 kts | 127° |
| 2026-04-16 22:10 | 36.77205 | -119.71682 | 340 ft | 11 kts | 127° |
| 2026-04-16 22:11 | 36.77203 | -119.71614 | 338 ft | 8 kts | 58° |
| 2026-04-16 22:11 | 36.77190 | -119.71541 | 337 ft | 12 kts | 124° |
| 2026-04-16 22:11 | 36.77135 | -119.71445 | 339 ft | 15 kts | 126° |
| 2026-04-16 22:11 | 36.77069 | -119.71329 | 334 ft | 18 kts | 126° |
| 2026-04-16 22:12 | 36.76991 | -119.71195 | 335 ft | 18 kts | 126° |
| 2026-04-16 22:12 | 36.76986 | -119.71082 | 337 ft | 12 kts | 40° |
| 2026-04-16 22:12 | 36.77063 | -119.71070 | 335 ft | 6 kts | 330° |
| 2026-04-16 22:12 | 36.77073 | -119.71084 | 335 ft | 0 kts | 304° |
| 2026-04-16 22:13 | 36.77074 | -119.71086 | 337 ft | 5 kts | 304° |
| 2026-04-16 22:13 | 36.77245 | -119.71388 | 336 ft | 80 kts | 306° |
| 2026-04-16 22:13 | 36.77700 | -119.72181 | 334 ft | 143 kts | 306° |
| 2026-04-16 22:13 | 36.78298 | -119.73177 | 1083 ft | 131 kts | 309° |
| 2026-04-16 22:14 | 36.78832 | -119.74105 | 1812 ft | 135 kts | 292° |
| 2026-04-16 22:14 | 36.78894 | -119.75321 | 2430 ft | 152 kts | 258° |
| 2026-04-16 22:14 | 36.78326 | -119.76550 | 2872 ft | 185 kts | 231° |
| 2026-04-16 22:14 | 36.77209 | -119.77597 | 3163 ft | 220 kts | 205° |
| 2026-04-16 22:15 | 36.75593 | -119.77838 | 3417 ft | 251 kts | 174° |
| 2026-04-16 22:15 | 36.73903 | -119.77065 | 3783 ft | 274 kts | 150° |
| 2026-04-16 22:15 | 36.72266 | -119.75756 | 4456 ft | 283 kts | 148° |
| 2026-04-16 22:15 | 36.70637 | -119.74447 | 5561 ft | 278 kts | 148° |
| 2026-04-16 22:16 | 36.69002 | -119.73162 | 6527 ft | 279 kts | 149° |
| 2026-04-16 22:16 | 36.67330 | -119.71884 | 7253 ft | 288 kts | 149° |
| 2026-04-16 22:16 | 36.65594 | -119.70583 | 7980 ft | 296 kts | 150° |
| 2026-04-16 22:16 | 36.63805 | -119.69255 | 8754 ft | 299 kts | 150° |
| 2026-04-16 22:17 | 36.62016 | -119.67932 | 9687 ft | 301 kts | 149° |
| 2026-04-16 22:17 | 36.60187 | -119.66680 | 10331 ft | 310 kts | 155° |
| 2026-04-16 22:17 | 36.58139 | -119.65557 | 10583 ft | 335 kts | 158° |
| 2026-04-16 22:17 | 36.55891 | -119.64425 | 10762 ft | 359 kts | 159° |
| 2026-04-16 22:18 | 36.53496 | -119.63239 | 10928 ft | 382 kts | 159° |
| 2026-04-16 22:18 | 36.50974 | -119.61982 | 11273 ft | 397 kts | 159° |
| 2026-04-16 22:18 | 36.48388 | -119.60677 | 11872 ft | 403 kts | 159° |
| 2026-04-16 22:18 | 36.45774 | -119.59345 | 12540 ft | 408 kts | 159° |
| 2026-04-16 22:19 | 36.43134 | -119.57991 | 13156 ft | 413 kts | 159° |
| 2026-04-16 22:19 | 36.40462 | -119.56615 | 13790 ft | 419 kts | 159° |
| 2026-04-16 22:19 | 36.37758 | -119.55220 | 14351 ft | 423 kts | 159° |
| 2026-04-16 22:19 | 36.35030 | -119.53812 | 15002 ft | 425 kts | 160° |
| 2026-04-16 22:20 | 36.32287 | -119.52395 | 15600 ft | 429 kts | 160° |
| 2026-04-16 22:20 | 36.29514 | -119.50966 | 16099 ft | 435 kts | 160° |
| 2026-04-16 22:20 | 36.26699 | -119.49518 | 16618 ft | 440 kts | 160° |
| 2026-04-16 22:20 | 36.23854 | -119.48055 | 17157 ft | 445 kts | 160° |
| 2026-04-16 22:21 | 36.20980 | -119.46578 | 17680 ft | 449 kts | 160° |
| 2026-04-16 22:21 | 36.18076 | -119.45087 | 18178 ft | 454 kts | 160° |
| 2026-04-16 22:21 | 36.15158 | -119.43589 | 18772 ft | 454 kts | 160° |
| 2026-04-16 22:21 | 36.12234 | -119.42089 | 19279 ft | 456 kts | 160° |
| 2026-04-16 22:22 | 36.09289 | -119.40580 | 19750 ft | 460 kts | 160° |
| 2026-04-16 22:22 | 36.06323 | -119.39062 | 20208 ft | 464 kts | 160° |
| 2026-04-16 22:22 | 36.03332 | -119.37532 | 20673 ft | 467 kts | 160° |
| 2026-04-16 22:22 | 36.00323 | -119.35994 | 21138 ft | 469 kts | 160° |
| 2026-04-16 22:23 | 35.97336 | -119.34468 | 21623 ft | 470 kts | 160° |
| 2026-04-16 22:23 | 35.94314 | -119.32925 | 22163 ft | 471 kts | 160° |
| 2026-04-16 22:23 | 35.91272 | -119.31375 | 22567 ft | 474 kts | 160° |
| 2026-04-16 22:23 | 35.88208 | -119.29814 | 22944 ft | 478 kts | 160° |
| 2026-04-16 22:24 | 35.85137 | -119.28251 | 23335 ft | 481 kts | 160° |
| 2026-04-16 22:24 | 35.82023 | -119.26668 | 23731 ft | 483 kts | 160° |
| 2026-04-16 22:24 | 35.78911 | -119.25086 | 24105 ft | 484 kts | 159° |
| 2026-04-16 22:24 | 35.75809 | -119.23508 | 24668 ft | 481 kts | 160° |
| 2026-04-16 22:25 | 35.72705 | -119.21933 | 25012 ft | 483 kts | 160° |
| 2026-04-16 22:25 | 35.69587 | -119.20355 | 25267 ft | 487 kts | 160° |
| 2026-04-16 22:25 | 35.66442 | -119.18763 | 25562 ft | 490 kts | 160° |
| 2026-04-16 22:25 | 35.63289 | -119.17168 | 25901 ft | 491 kts | 160° |
| 2026-04-16 22:26 | 35.60126 | -119.15569 | 26232 ft | 492 kts | 159° |
| 2026-04-16 22:26 | 35.56950 | -119.13963 | 26610 ft | 493 kts | 159° |
| 2026-04-16 22:26 | 35.53781 | -119.12363 | 26909 ft | 494 kts | 159° |
| 2026-04-16 22:26 | 35.50610 | -119.10695 | 27164 ft | 498 kts | 155° |
| 2026-04-16 22:27 | 35.47603 | -119.08540 | 27425 ft | 502 kts | 146° |
| 2026-04-16 22:27 | 35.44888 | -119.05843 | 27812 ft | 502 kts | 137° |
| 2026-04-16 22:27 | 35.42362 | -119.02903 | 28297 ft | 500 kts | 137° |
| 2026-04-16 22:27 | 35.39860 | -118.99963 | 28792 ft | 497 kts | 137° |
| 2026-04-16 22:28 | 35.37368 | -118.97056 | 29257 ft | 495 kts | 137° |
| 2026-04-16 22:28 | 35.34890 | -118.94199 | 29632 ft | 495 kts | 138° |
| 2026-04-16 22:28 | 35.32370 | -118.91323 | 29970 ft | 495 kts | 138° |
| 2026-04-16 22:28 | 35.29848 | -118.88461 | 30324 ft | 495 kts | 139° |
| 2026-04-16 22:29 | 35.27327 | -118.85606 | 30714 ft | 492 kts | 139° |
| 2026-04-16 22:29 | 35.24817 | -118.82764 | 31107 ft | 490 kts | 139° |
| 2026-04-16 22:29 | 35.22328 | -118.79946 | 31597 ft | 485 kts | 139° |
| 2026-04-16 22:29 | 35.19863 | -118.77155 | 32023 ft | 482 kts | 140° |
| 2026-04-16 22:30 | 35.17421 | -118.74351 | 32327 ft | 482 kts | 138° |
| 2026-04-16 22:30 | 35.15044 | -118.71444 | 32632 ft | 483 kts | 136° |
| 2026-04-16 22:30 | 35.12706 | -118.68483 | 32966 ft | 483 kts | 136° |
| 2026-04-16 22:30 | 35.10396 | -118.65523 | 33356 ft | 481 kts | 136° |
| 2026-04-16 22:31 | 35.08094 | -118.62578 | 33717 ft | 479 kts | 137° |
| 2026-04-16 22:31 | 35.05810 | -118.59671 | 34338 ft | 469 kts | 137° |
| 2026-04-16 22:31 | 35.03561 | -118.56825 | 34842 ft | 463 kts | 137° |
| 2026-04-16 22:31 | 35.01305 | -118.53986 | 34920 ft | 468 kts | 137° |
| 2026-04-16 22:32 | 34.96734 | -118.48263 | 35189 ft | 472 kts | 137° |
| 2026-04-16 22:32 | 34.94475 | -118.45438 | 35497 ft | 470 kts | 137° |
| 2026-04-16 22:32 | 34.92197 | -118.42589 | 35776 ft | 468 kts | 137° |
| 2026-04-16 22:33 | 34.89922 | -118.39746 | 35932 ft | 468 kts | 137° |
| 2026-04-16 22:33 | 34.87648 | -118.36908 | 36115 ft | 469 kts | 137° |
| 2026-04-16 22:33 | 34.85366 | -118.34061 | 36324 ft | 469 kts | 137° |
| 2026-04-16 22:33 | 34.83082 | -118.31213 | 36535 ft | 469 kts | 137° |
| 2026-04-16 22:34 | 34.80807 | -118.28380 | 36759 ft | 468 kts | 137° |
| 2026-04-16 22:34 | 34.78533 | -118.25549 | 36965 ft | 468 kts | 137° |
| 2026-04-16 22:34 | 34.76258 | -118.22720 | 37168 ft | 468 kts | 137° |
| 2026-04-16 22:34 | 34.73982 | -118.19892 | 37348 ft | 468 kts | 137° |
| 2026-04-16 22:35 | 34.71699 | -118.17058 | 37546 ft | 467 kts | 137° |
| 2026-04-16 22:35 | 34.69427 | -118.14238 | 37755 ft | 467 kts | 137° |
| 2026-04-16 22:35 | 34.67156 | -118.11422 | 37931 ft | 467 kts | 137° |
| 2026-04-16 22:35 | 34.64924 | -118.08546 | 38086 ft | 468 kts | 131° |
| 2026-04-16 22:36 | 34.63042 | -118.05304 | 38291 ft | 472 kts | 123° |
| 2026-04-16 22:36 | 34.61574 | -118.01737 | 38471 ft | 475 kts | 113° |
| 2026-04-16 22:36 | 34.60439 | -117.97971 | 38637 ft | 475 kts | 112° |
| 2026-04-16 22:36 | 34.59363 | -117.94227 | 38733 ft | 476 kts | 111° |
| 2026-04-16 22:37 | 34.58281 | -117.90436 | 38855 ft | 475 kts | 111° |
| 2026-04-16 22:37 | 34.57192 | -117.86651 | 38915 ft | 473 kts | 112° |
| 2026-04-16 22:37 | 34.54984 | -117.79141 | 38921 ft | 473 kts | 112° |
| 2026-04-16 22:38 | 34.52735 | -117.71620 | 38928 ft | 475 kts | 112° |
| 2026-04-16 22:38 | 34.50470 | -117.64087 | 38940 ft | 477 kts | 112° |
| 2026-04-16 22:39 | 34.48192 | -117.56520 | 38943 ft | 478 kts | 112° |
| 2026-04-16 22:39 | 34.45910 | -117.48955 | 38949 ft | 478 kts | 112° |
| 2026-04-16 22:40 | 34.43625 | -117.41398 | 38901 ft | 477 kts | 112° |
| 2026-04-16 22:40 | 34.41339 | -117.33859 | 38903 ft | 476 kts | 113° |
| 2026-04-16 22:41 | 34.39059 | -117.26356 | 38927 ft | 474 kts | 113° |
| 2026-04-16 22:41 | 34.36782 | -117.18885 | 38929 ft | 473 kts | 113° |
| 2026-04-16 22:42 | 34.34518 | -117.11473 | 38914 ft | 472 kts | 113° |
| 2026-04-16 22:42 | 34.32244 | -117.04047 | 38900 ft | 470 kts | 113° |
| 2026-04-16 22:43 | 34.29970 | -116.96643 | 38894 ft | 469 kts | 113° |